Airfield :
LOGIN :

Register | Disclaimer

   EN    FR    IT 

 










Legend :    VFR   Marginal VFR   IFR   Intensive IFR   Very Intensive IFR
Visi :
Ceiling :
>= 8 km
>= 3000ft
5 to 8 km
1000 to 3000 ft
1500m to 5 km
500 to 1000 ft
800 to 1500m
200 to 500 ft
< 800m
< 200 ft
Symbols :   Thunderstorms  Fog  Heavy snow  Heavy precipitations  Wind > 20 kt
SIGMETs :     Misc.  Thunderstorms  Icing  Turbulence  Mountain Waves  Volcanic Ashes







- Airport Elevation : 42 ft
- IATA code : CAL
- Download approach charts


EGEC - Campbeltown

CURRENT METAR :
  • 210850Z 25020KT 4300 SHRA SCT024 BKN045 09/07 Q0996

EXPIRED METARs :
  • 210820Z 25022KT 9999 SCT022 BKN045 09/07 Q0995
  • 210750Z 25021KT 9999 VCSH FEW028 09/07 Q0995
  • 210720Z 25022KT 9999 FEW022CB 10/07 Q0995
  • 210650Z 24021KT 9999 FEW020CB 09/07 Q0995

TAF TAF EGEC
Valid from the 21 at 09:00 until the 21 at 17:00 UTC


210800Z 2109/2117 24020KT 9999 SCT025
BECMG 2109/2112 30018G28KT
TEMPO 2109/2117 6000 SHRA
PROB30
TEMPO 2109/2117 3000 +SHRA +TSGS BKN014 BKN025CB
No reported NOTAMs for that airfield.
1 SIGMET reported for the Scottish FIR (EGPX) :
 
Severe turbulence
EGPX SIGMET 03 VALID 210900/211200 EGRR
EGPX SCOTTISH FIR SEV TURB FCST SE OF LINE N5500 W00330 - N6100 W00018 SFC/FL060 MOV E 15KT NC=



MET'MAP, your aeronautical weather chart ! - Copyright ORBIFLY December 2007 - Disclaimer

ORBIFLY MET'MAP TEAM :

Programming & Development : Alexandra Zaïnal
Concept & Development : Baudouin d'Aumeries
Co-Development & Prog : Marc-Olivier Méhu
Technical & hardware support : Manuel Goepfert

Contact : metmap@orbifly.com




SOURCES & CREDITS :

   NOAA